sensor_id;sensor_type;location;lat;lon;timestamp;P1;durP1;ratioP1;P2;durP2;ratioP2
15071;SDS011;7635;56.696;13.002;2022-12-29T00:00:09;0.90;;;0.90;;
15071;SDS011;7635;56.696;13.002;2022-12-29T00:02:36;0.90;;;0.90;;
15071;SDS011;7635;56.696;13.002;2022-12-29T00:05:04;0.77;;;0.77;;
15071;SDS011;7635;56.696;13.002;2022-12-29T00:07:33;0.90;;;0.90;;
15071;SDS011;7635;56.696;13.002;2022-12-29T00:10:02;0.80;;;0.80;;
15071;SDS011;7635;56.696;13.002;2022-12-29T00:12:29;1.07;;;1.00;;
15071;SDS011;7635;56.696;13.002;2022-12-29T00:15:15;0.70;;;0.70;;
15071;SDS011;7635;56.696;13.002;2022-12-29T00:18:00;1.10;;;1.10;;
15071;SDS011;7635;56.696;13.002;2022-12-29T00:20:26;0.90;;;0.90;;
15071;SDS011;7635;56.696;13.002;2022-12-29T00:23:12;0.80;;;0.80;;
15071;SDS011;7635;56.696;13.002;2022-12-29T00:26:02;0.77;;;0.77;;
15071;SDS011;7635;56.696;13.002;2022-12-29T00:28:47;0.77;;;0.77;;
15071;SDS011;7635;56.696;13.002;2022-12-29T00:31:31;1.23;;;1.13;;
15071;SDS011;7635;56.696;13.002;2022-12-29T00:34:18;1.23;;;0.93;;
15071;SDS011;7635;56.696;13.002;2022-12-29T00:37:02;1.00;;;1.00;;
15071;SDS011;7635;56.696;13.002;2022-12-29T00:39:30;0.77;;;0.77;;
15071;SDS011;7635;56.696;13.002;2022-12-29T00:42:15;2.53;;;1.20;;
15071;SDS011;7635;56.696;13.002;2022-12-29T00:44:58;0.90;;;0.90;;
15071;SDS011;7635;56.696;13.002;2022-12-29T00:47:25;1.10;;;1.10;;
15071;SDS011;7635;56.696;13.002;2022-12-29T00:49:51;1.03;;;1.03;;
15071;SDS011;7635;56.696;13.002;2022-12-29T00:52:17;0.90;;;0.90;;
15071;SDS011;7635;56.696;13.002;2022-12-29T00:54:45;1.10;;;1.10;;
15071;SDS011;7635;56.696;13.002;2022-12-29T00:57:12;1.37;;;1.30;;
15071;SDS011;7635;56.696;13.002;2022-12-29T00:59:39;1.40;;;1.30;;
15071;SDS011;7635;56.696;13.002;2022-12-29T01:02:15;1.00;;;1.00;;
15071;SDS011;7635;56.696;13.002;2022-12-29T01:04:51;1.40;;;1.30;;
15071;SDS011;7635;56.696;13.002;2022-12-29T01:07:27;1.67;;;1.43;;
15071;SDS011;7635;56.696;13.002;2022-12-29T01:09:55;1.50;;;1.40;;
15071;SDS011;7635;56.696;13.002;2022-12-29T01:12:36;1.80;;;1.40;;
15071;SDS011;7635;56.696;13.002;2022-12-29T01:15:20;3.10;;;1.37;;
15071;SDS011;7635;56.696;13.002;2022-12-29T01:17:50;1.50;;;1.40;;
15071;SDS011;7635;56.696;13.002;2022-12-29T01:22:58;1.70;;;1.60;;
15071;SDS011;7635;56.696;13.002;2022-12-29T01:25:30;1.60;;;1.50;;
15071;SDS011;7635;56.696;13.002;2022-12-29T01:27:56;1.60;;;1.50;;
15071;SDS011;7635;56.696;13.002;2022-12-29T01:30:23;1.70;;;1.60;;
15071;SDS011;7635;56.696;13.002;2022-12-29T01:32:50;1.73;;;1.63;;
15071;SDS011;7635;56.696;13.002;2022-12-29T01:35:17;1.70;;;1.57;;
15071;SDS011;7635;56.696;13.002;2022-12-29T01:37:43;2.03;;;1.70;;
15071;SDS011;7635;56.696;13.002;2022-12-29T01:40:16;2.00;;;1.60;;
15071;SDS011;7635;56.696;13.002;2022-12-29T01:42:44;3.50;;;1.93;;
15071;SDS011;7635;56.696;13.002;2022-12-29T01:45:12;1.80;;;1.70;;
15071;SDS011;7635;56.696;13.002;2022-12-29T01:47:39;1.80;;;1.70;;
15071;SDS011;7635;56.696;13.002;2022-12-29T01:50:10;1.60;;;1.50;;
15071;SDS011;7635;56.696;13.002;2022-12-29T01:52:41;2.30;;;2.10;;
15071;SDS011;7635;56.696;13.002;2022-12-29T01:55:12;2.27;;;2.10;;
15071;SDS011;7635;56.696;13.002;2022-12-29T01:57:40;2.17;;;1.93;;
15071;SDS011;7635;56.696;13.002;2022-12-29T02:00:14;2.27;;;2.07;;
15071;SDS011;7635;56.696;13.002;2022-12-29T02:02:42;3.07;;;2.10;;
15071;SDS011;7635;56.696;13.002;2022-12-29T02:05:14;1.90;;;1.80;;
15071;SDS011;7635;56.696;13.002;2022-12-29T02:07:46;2.47;;;2.27;;
15071;SDS011;7635;56.696;13.002;2022-12-29T02:10:14;2.43;;;2.23;;
15071;SDS011;7635;56.696;13.002;2022-12-29T02:12:43;2.03;;;1.90;;
15071;SDS011;7635;56.696;13.002;2022-12-29T02:15:11;1.97;;;1.77;;
15071;SDS011;7635;56.696;13.002;2022-12-29T02:20:34;3.67;;;2.07;;
15071;SDS011;7635;56.696;13.002;2022-12-29T02:23:22;3.00;;;1.83;;
15071;SDS011;7635;56.696;13.002;2022-12-29T02:29:03;1.93;;;1.80;;
15071;SDS011;7635;56.696;13.002;2022-12-29T02:31:54;1.73;;;1.60;;
15071;SDS011;7635;56.696;13.002;2022-12-29T02:37:10;1.80;;;1.70;;
15071;SDS011;7635;56.696;13.002;2022-12-29T02:39:47;3.87;;;1.70;;
15071;SDS011;7635;56.696;13.002;2022-12-29T02:42:21;1.80;;;1.70;;
15071;SDS011;7635;56.696;13.002;2022-12-29T02:44:53;1.47;;;1.37;;
15071;SDS011;7635;56.696;13.002;2022-12-29T02:47:30;2.40;;;1.50;;
15071;SDS011;7635;56.696;13.002;2022-12-29T02:50:03;1.70;;;1.50;;
15071;SDS011;7635;56.696;13.002;2022-12-29T02:52:35;2.53;;;2.07;;
15071;SDS011;7635;56.696;13.002;2022-12-29T02:55:06;1.80;;;1.70;;
15071;SDS011;7635;56.696;13.002;2022-12-29T02:57:35;1.60;;;1.50;;
15071;SDS011;7635;56.696;13.002;2022-12-29T03:00:03;1.57;;;1.47;;
15071;SDS011;7635;56.696;13.002;2022-12-29T03:02:42;1.70;;;1.60;;
15071;SDS011;7635;56.696;13.002;2022-12-29T03:05:31;1.93;;;1.47;;
15071;SDS011;7635;56.696;13.002;2022-12-29T03:08:18;1.60;;;1.50;;
15071;SDS011;7635;56.696;13.002;2022-12-29T03:10:59;1.43;;;1.33;;
15071;SDS011;7635;56.696;13.002;2022-12-29T03:13:30;1.30;;;1.20;;
15071;SDS011;7635;56.696;13.002;2022-12-29T03:16:20;1.23;;;1.10;;
15071;SDS011;7635;56.696;13.002;2022-12-29T03:18:57;1.30;;;1.20;;
15071;SDS011;7635;56.696;13.002;2022-12-29T03:21:30;0.93;;;0.93;;
15071;SDS011;7635;56.696;13.002;2022-12-29T03:24:18;1.00;;;1.00;;
15071;SDS011;7635;56.696;13.002;2022-12-29T03:26:48;1.00;;;1.00;;
15071;SDS011;7635;56.696;13.002;2022-12-29T03:29:16;1.10;;;1.10;;
15071;SDS011;7635;56.696;13.002;2022-12-29T03:31:44;1.40;;;1.30;;
15071;SDS011;7635;56.696;13.002;2022-12-29T03:34:13;1.27;;;1.17;;
15071;SDS011;7635;56.696;13.002;2022-12-29T03:36:46;1.00;;;1.00;;
15071;SDS011;7635;56.696;13.002;2022-12-29T03:39:19;0.90;;;0.90;;
15071;SDS011;7635;56.696;13.002;2022-12-29T03:41:48;1.50;;;1.40;;
15071;SDS011;7635;56.696;13.002;2022-12-29T03:44:20;1.30;;;1.07;;
15071;SDS011;7635;56.696;13.002;2022-12-29T03:46:47;1.30;;;1.20;;
15071;SDS011;7635;56.696;13.002;2022-12-29T03:49:15;1.00;;;1.00;;
15071;SDS011;7635;56.696;13.002;2022-12-29T03:51:42;1.23;;;1.23;;
15071;SDS011;7635;56.696;13.002;2022-12-29T03:54:09;1.37;;;1.30;;
15071;SDS011;7635;56.696;13.002;2022-12-29T03:56:36;1.30;;;1.20;;
15071;SDS011;7635;56.696;13.002;2022-12-29T03:59:09;1.17;;;1.17;;
15071;SDS011;7635;56.696;13.002;2022-12-29T04:01:36;1.10;;;1.10;;
15071;SDS011;7635;56.696;13.002;2022-12-29T04:04:03;1.27;;;1.27;;
15071;SDS011;7635;56.696;13.002;2022-12-29T04:06:37;1.13;;;1.13;;
15071;SDS011;7635;56.696;13.002;2022-12-29T04:09:12;2.40;;;1.07;;
15071;SDS011;7635;56.696;13.002;2022-12-29T04:11:38;1.10;;;1.10;;
15071;SDS011;7635;56.696;13.002;2022-12-29T04:14:09;1.10;;;1.10;;
15071;SDS011;7635;56.696;13.002;2022-12-29T04:16:36;0.87;;;0.87;;
15071;SDS011;7635;56.696;13.002;2022-12-29T04:19:03;1.13;;;1.10;;
15071;SDS011;7635;56.696;13.002;2022-12-29T04:21:30;1.07;;;1.07;;
15071;SDS011;7635;56.696;13.002;2022-12-29T04:24:01;0.97;;;0.93;;
15071;SDS011;7635;56.696;13.002;2022-12-29T04:26:31;1.17;;;0.93;;
15071;SDS011;7635;56.696;13.002;2022-12-29T04:29:01;0.77;;;0.77;;
15071;SDS011;7635;56.696;13.002;2022-12-29T04:31:27;1.30;;;1.23;;
15071;SDS011;7635;56.696;13.002;2022-12-29T04:33:54;0.73;;;0.73;;
15071;SDS011;7635;56.696;13.002;2022-12-29T04:36:22;0.70;;;0.70;;
15071;SDS011;7635;56.696;13.002;2022-12-29T04:38:58;1.00;;;1.00;;
15071;SDS011;7635;56.696;13.002;2022-12-29T04:41:26;1.07;;;0.83;;
15071;SDS011;7635;56.696;13.002;2022-12-29T04:43:53;0.80;;;0.80;;
15071;SDS011;7635;56.696;13.002;2022-12-29T04:46:20;0.80;;;0.80;;
15071;SDS011;7635;56.696;13.002;2022-12-29T04:48:49;0.90;;;0.90;;
15071;SDS011;7635;56.696;13.002;2022-12-29T04:51:16;0.90;;;0.90;;
15071;SDS011;7635;56.696;13.002;2022-12-29T04:53:43;0.77;;;0.77;;
15071;SDS011;7635;56.696;13.002;2022-12-29T04:56:10;0.73;;;0.73;;
15071;SDS011;7635;56.696;13.002;2022-12-29T04:58:38;0.80;;;0.80;;
15071;SDS011;7635;56.696;13.002;2022-12-29T05:01:05;0.90;;;0.90;;
15071;SDS011;7635;56.696;13.002;2022-12-29T05:03:31;0.70;;;0.70;;
15071;SDS011;7635;56.696;13.002;2022-12-29T05:05:58;0.87;;;0.87;;
15071;SDS011;7635;56.696;13.002;2022-12-29T05:08:25;0.77;;;0.77;;
15071;SDS011;7635;56.696;13.002;2022-12-29T05:10:52;1.00;;;1.00;;
15071;SDS011;7635;56.696;13.002;2022-12-29T05:13:20;0.97;;;0.97;;
15071;SDS011;7635;56.696;13.002;2022-12-29T05:15:49;0.87;;;0.80;;
15071;SDS011;7635;56.696;13.002;2022-12-29T05:18:16;1.00;;;1.00;;
15071;SDS011;7635;56.696;13.002;2022-12-29T05:20:52;1.20;;;1.10;;
15071;SDS011;7635;56.696;13.002;2022-12-29T05:23:19;1.10;;;1.10;;
15071;SDS011;7635;56.696;13.002;2022-12-29T05:25:55;1.93;;;1.30;;
15071;SDS011;7635;56.696;13.002;2022-12-29T05:28:21;1.30;;;1.00;;
15071;SDS011;7635;56.696;13.002;2022-12-29T05:30:50;1.20;;;1.20;;
15071;SDS011;7635;56.696;13.002;2022-12-29T05:33:20;1.60;;;1.33;;
15071;SDS011;7635;56.696;13.002;2022-12-29T05:35:47;2.17;;;1.77;;
15071;SDS011;7635;56.696;13.002;2022-12-29T05:38:19;1.67;;;1.53;;
15071;SDS011;7635;56.696;13.002;2022-12-29T05:40:46;1.53;;;1.30;;
15071;SDS011;7635;56.696;13.002;2022-12-29T05:43:22;1.87;;;1.63;;
15071;SDS011;7635;56.696;13.002;2022-12-29T05:45:50;4.80;;;2.33;;
15071;SDS011;7635;56.696;13.002;2022-12-29T05:48:17;2.10;;;1.90;;
15071;SDS011;7635;56.696;13.002;2022-12-29T05:50:46;2.40;;;2.07;;
15071;SDS011;7635;56.696;13.002;2022-12-29T05:53:25;2.67;;;2.10;;
15071;SDS011;7635;56.696;13.002;2022-12-29T05:55:52;2.20;;;2.07;;
15071;SDS011;7635;56.696;13.002;2022-12-29T05:58:19;1.87;;;1.77;;
15071;SDS011;7635;56.696;13.002;2022-12-29T06:00:46;2.50;;;1.80;;
15071;SDS011;7635;56.696;13.002;2022-12-29T06:03:14;2.30;;;2.10;;
15071;SDS011;7635;56.696;13.002;2022-12-29T06:05:41;2.10;;;1.87;;
15071;SDS011;7635;56.696;13.002;2022-12-29T06:08:07;4.03;;;2.30;;
15071;SDS011;7635;56.696;13.002;2022-12-29T06:10:34;2.70;;;1.70;;
15071;SDS011;7635;56.696;13.002;2022-12-29T06:13:01;3.03;;;2.40;;
15071;SDS011;7635;56.696;13.002;2022-12-29T06:15:28;5.17;;;2.07;;
15071;SDS011;7635;56.696;13.002;2022-12-29T06:17:55;2.83;;;2.03;;
15071;SDS011;7635;56.696;13.002;2022-12-29T06:20:23;2.27;;;2.07;;
15071;SDS011;7635;56.696;13.002;2022-12-29T06:22:50;2.70;;;2.20;;
15071;SDS011;7635;56.696;13.002;2022-12-29T06:25:17;2.30;;;2.13;;
15071;SDS011;7635;56.696;13.002;2022-12-29T06:27:47;2.17;;;2.03;;
15071;SDS011;7635;56.696;13.002;2022-12-29T06:30:14;1.83;;;1.73;;
15071;SDS011;7635;56.696;13.002;2022-12-29T06:32:42;3.00;;;2.60;;
15071;SDS011;7635;56.696;13.002;2022-12-29T06:37:55;1.80;;;1.70;;
15071;SDS011;7635;56.696;13.002;2022-12-29T06:40:31;3.10;;;1.87;;
15071;SDS011;7635;56.696;13.002;2022-12-29T06:42:58;1.87;;;1.77;;
15071;SDS011;7635;56.696;13.002;2022-12-29T06:45:24;1.43;;;1.33;;
15071;SDS011;7635;56.696;13.002;2022-12-29T06:47:51;1.70;;;1.50;;
15071;SDS011;7635;56.696;13.002;2022-12-29T06:50:18;1.43;;;1.33;;
15071;SDS011;7635;56.696;13.002;2022-12-29T06:52:46;2.30;;;2.10;;
15071;SDS011;7635;56.696;13.002;2022-12-29T06:55:25;2.17;;;1.57;;
15071;SDS011;7635;56.696;13.002;2022-12-29T06:57:53;1.70;;;1.60;;
15071;SDS011;7635;56.696;13.002;2022-12-29T07:00:20;1.80;;;1.70;;
15071;SDS011;7635;56.696;13.002;2022-12-29T07:02:47;1.70;;;1.60;;
15071;SDS011;7635;56.696;13.002;2022-12-29T07:05:14;1.50;;;1.40;;
15071;SDS011;7635;56.696;13.002;2022-12-29T07:07:41;1.60;;;1.50;;
15071;SDS011;7635;56.696;13.002;2022-12-29T07:10:10;1.47;;;1.37;;
15071;SDS011;7635;56.696;13.002;2022-12-29T07:12:37;1.50;;;1.40;;
15071;SDS011;7635;56.696;13.002;2022-12-29T07:15:04;1.40;;;1.30;;
15071;SDS011;7635;56.696;13.002;2022-12-29T07:17:34;1.40;;;1.30;;
15071;SDS011;7635;56.696;13.002;2022-12-29T07:20:01;1.63;;;1.50;;
15071;SDS011;7635;56.696;13.002;2022-12-29T07:22:28;1.40;;;1.30;;
15071;SDS011;7635;56.696;13.002;2022-12-29T07:24:55;3.67;;;2.00;;
15071;SDS011;7635;56.696;13.002;2022-12-29T07:27:23;1.50;;;1.40;;
15071;SDS011;7635;56.696;13.002;2022-12-29T07:29:49;2.30;;;1.97;;
15071;SDS011;7635;56.696;13.002;2022-12-29T07:32:16;1.93;;;1.40;;
15071;SDS011;7635;56.696;13.002;2022-12-29T07:34:43;1.83;;;1.73;;
15071;SDS011;7635;56.696;13.002;2022-12-29T07:37:12;2.70;;;1.50;;
15071;SDS011;7635;56.696;13.002;2022-12-29T07:39:40;2.23;;;1.97;;
15071;SDS011;7635;56.696;13.002;2022-12-29T07:42:08;2.00;;;1.90;;
15071;SDS011;7635;56.696;13.002;2022-12-29T07:44:36;1.53;;;1.43;;
15071;SDS011;7635;56.696;13.002;2022-12-29T07:47:03;2.57;;;2.37;;
15071;SDS011;7635;56.696;13.002;2022-12-29T07:49:33;3.77;;;2.13;;
15071;SDS011;7635;56.696;13.002;2022-12-29T07:51:59;2.20;;;2.00;;
15071;SDS011;7635;56.696;13.002;2022-12-29T07:54:35;2.80;;;1.90;;
15071;SDS011;7635;56.696;13.002;2022-12-29T07:57:02;2.07;;;1.93;;
15071;SDS011;7635;56.696;13.002;2022-12-29T07:59:28;2.83;;;2.23;;
15071;SDS011;7635;56.696;13.002;2022-12-29T08:01:56;2.07;;;1.87;;
15071;SDS011;7635;56.696;13.002;2022-12-29T08:04:23;4.03;;;2.43;;
15071;SDS011;7635;56.696;13.002;2022-12-29T08:06:50;2.53;;;2.23;;
15071;SDS011;7635;56.696;13.002;2022-12-29T08:09:20;3.23;;;2.23;;
15071;SDS011;7635;56.696;13.002;2022-12-29T08:11:47;2.77;;;2.30;;
15071;SDS011;7635;56.696;13.002;2022-12-29T08:14:14;2.80;;;2.57;;
15071;SDS011;7635;56.696;13.002;2022-12-29T08:16:40;4.77;;;2.90;;
15071;SDS011;7635;56.696;13.002;2022-12-29T08:19:10;3.60;;;2.07;;
15071;SDS011;7635;56.696;13.002;2022-12-29T08:21:37;3.17;;;2.87;;
15071;SDS011;7635;56.696;13.002;2022-12-29T08:24:04;2.50;;;2.30;;
15071;SDS011;7635;56.696;13.002;2022-12-29T08:26:32;4.30;;;2.57;;
15071;SDS011;7635;56.696;13.002;2022-12-29T08:29:00;2.50;;;2.30;;
15071;SDS011;7635;56.696;13.002;2022-12-29T08:31:27;2.70;;;2.50;;
15071;SDS011;7635;56.696;13.002;2022-12-29T08:33:53;2.67;;;2.30;;
15071;SDS011;7635;56.696;13.002;2022-12-29T08:36:22;3.13;;;2.83;;
15071;SDS011;7635;56.696;13.002;2022-12-29T08:38:54;2.13;;;1.87;;
15071;SDS011;7635;56.696;13.002;2022-12-29T08:41:21;5.97;;;3.30;;
15071;SDS011;7635;56.696;13.002;2022-12-29T08:43:48;5.63;;;2.80;;
15071;SDS011;7635;56.696;13.002;2022-12-29T08:46:16;2.20;;;1.90;;
15071;SDS011;7635;56.696;13.002;2022-12-29T08:48:42;3.00;;;2.63;;
15071;SDS011;7635;56.696;13.002;2022-12-29T08:51:13;3.43;;;2.53;;
15071;SDS011;7635;56.696;13.002;2022-12-29T08:53:41;3.23;;;2.53;;
15071;SDS011;7635;56.696;13.002;2022-12-29T08:56:17;2.67;;;2.07;;
15071;SDS011;7635;56.696;13.002;2022-12-29T08:58:44;3.73;;;2.50;;
15071;SDS011;7635;56.696;13.002;2022-12-29T09:01:11;2.70;;;2.07;;
15071;SDS011;7635;56.696;13.002;2022-12-29T09:03:48;3.60;;;2.63;;
15071;SDS011;7635;56.696;13.002;2022-12-29T09:06:15;2.17;;;1.87;;
15071;SDS011;7635;56.696;13.002;2022-12-29T09:08:44;2.60;;;2.40;;
15071;SDS011;7635;56.696;13.002;2022-12-29T09:11:11;2.23;;;2.03;;
15071;SDS011;7635;56.696;13.002;2022-12-29T09:13:40;2.30;;;1.87;;
15071;SDS011;7635;56.696;13.002;2022-12-29T09:16:07;1.53;;;1.43;;
15071;SDS011;7635;56.696;13.002;2022-12-29T09:18:34;1.90;;;1.50;;
15071;SDS011;7635;56.696;13.002;2022-12-29T09:21:01;2.10;;;1.90;;
15071;SDS011;7635;56.696;13.002;2022-12-29T09:23:30;2.40;;;2.20;;
15071;SDS011;7635;56.696;13.002;2022-12-29T09:25:58;2.53;;;1.77;;
15071;SDS011;7635;56.696;13.002;2022-12-29T09:28:28;2.33;;;1.37;;
15071;SDS011;7635;56.696;13.002;2022-12-29T09:30:55;1.93;;;1.73;;
15071;SDS011;7635;56.696;13.002;2022-12-29T09:33:23;1.13;;;1.13;;
15071;SDS011;7635;56.696;13.002;2022-12-29T09:35:51;1.33;;;1.23;;
15071;SDS011;7635;56.696;13.002;2022-12-29T09:38:18;1.43;;;1.33;;
15071;SDS011;7635;56.696;13.002;2022-12-29T09:40:52;1.50;;;1.40;;
15071;SDS011;7635;56.696;13.002;2022-12-29T09:43:26;1.37;;;1.27;;
15071;SDS011;7635;56.696;13.002;2022-12-29T09:46:26;0.90;;;0.90;;
15071;SDS011;7635;56.696;13.002;2022-12-29T09:48:55;1.27;;;1.20;;
15071;SDS011;7635;56.696;13.002;2022-12-29T09:51:33;2.07;;;1.50;;
15071;SDS011;7635;56.696;13.002;2022-12-29T09:54:04;0.20;;;0.20;;
15071;SDS011;7635;56.696;13.002;2022-12-29T09:56:49;1.70;;;1.60;;
15071;SDS011;7635;56.696;13.002;2022-12-29T09:59:20;1.00;;;1.00;;
15071;SDS011;7635;56.696;13.002;2022-12-29T10:01:51;1.10;;;1.10;;
15071;SDS011;7635;56.696;13.002;2022-12-29T10:04:22;2.87;;;1.47;;
15071;SDS011;7635;56.696;13.002;2022-12-29T10:06:54;1.50;;;1.40;;
15071;SDS011;7635;56.696;13.002;2022-12-29T10:09:26;1.20;;;1.10;;
15071;SDS011;7635;56.696;13.002;2022-12-29T10:12:03;1.30;;;1.20;;
15071;SDS011;7635;56.696;13.002;2022-12-29T10:14:53;1.93;;;1.40;;
15071;SDS011;7635;56.696;13.002;2022-12-29T10:17:31;2.57;;;0.97;;
15071;SDS011;7635;56.696;13.002;2022-12-29T10:20:11;1.27;;;1.27;;
15071;SDS011;7635;56.696;13.002;2022-12-29T10:22:55;1.00;;;1.00;;
15071;SDS011;7635;56.696;13.002;2022-12-29T10:25:42;2.17;;;1.03;;
15071;SDS011;7635;56.696;13.002;2022-12-29T10:28:18;0.54;;;0.54;;
15071;SDS011;7635;56.696;13.002;2022-12-29T10:30:48;2.97;;;1.50;;
15071;SDS011;7635;56.696;13.002;2022-12-29T10:33:18;3.03;;;1.40;;
15071;SDS011;7635;56.696;13.002;2022-12-29T10:35:48;1.60;;;1.50;;
15071;SDS011;7635;56.696;13.002;2022-12-29T10:38:19;2.37;;;1.13;;
15071;SDS011;7635;56.696;13.002;2022-12-29T10:40:51;1.60;;;1.20;;
15071;SDS011;7635;56.696;13.002;2022-12-29T10:43:25;1.30;;;1.20;;
15071;SDS011;7635;56.696;13.002;2022-12-29T10:45:56;1.30;;;1.00;;
15071;SDS011;7635;56.696;13.002;2022-12-29T10:48:32;1.97;;;1.20;;
15071;SDS011;7635;56.696;13.002;2022-12-29T10:51:00;1.57;;;1.07;;
15071;SDS011;7635;56.696;13.002;2022-12-29T10:53:30;1.40;;;1.30;;
15071;SDS011;7635;56.696;13.002;2022-12-29T10:56:02;3.07;;;1.13;;
15071;SDS011;7635;56.696;13.002;2022-12-29T10:58:35;1.83;;;1.20;;
15071;SDS011;7635;56.696;13.002;2022-12-29T11:01:18;1.97;;;1.20;;
15071;SDS011;7635;56.696;13.002;2022-12-29T11:03:58;1.90;;;1.27;;
15071;SDS011;7635;56.696;13.002;2022-12-29T11:06:31;1.30;;;1.00;;
15071;SDS011;7635;56.696;13.002;2022-12-29T11:09:00;1.67;;;1.07;;
15071;SDS011;7635;56.696;13.002;2022-12-29T11:11:35;0.70;;;0.70;;
15071;SDS011;7635;56.696;13.002;2022-12-29T11:14:07;3.00;;;1.17;;
15071;SDS011;7635;56.696;13.002;2022-12-29T11:16:40;1.07;;;1.00;;
15071;SDS011;7635;56.696;13.002;2022-12-29T11:19:19;1.00;;;1.00;;
15071;SDS011;7635;56.696;13.002;2022-12-29T11:21:47;2.10;;;1.37;;
15071;SDS011;7635;56.696;13.002;2022-12-29T11:24:18;0.97;;;0.97;;
15071;SDS011;7635;56.696;13.002;2022-12-29T11:26:48;0.90;;;0.90;;
15071;SDS011;7635;56.696;13.002;2022-12-29T11:29:20;2.63;;;1.60;;
15071;SDS011;7635;56.696;13.002;2022-12-29T11:31:51;1.77;;;1.30;;
15071;SDS011;7635;56.696;13.002;2022-12-29T11:34:20;4.20;;;1.43;;
15071;SDS011;7635;56.696;13.002;2022-12-29T11:36:50;1.60;;;1.00;;
15071;SDS011;7635;56.696;13.002;2022-12-29T11:39:29;3.30;;;1.50;;
15071;SDS011;7635;56.696;13.002;2022-12-29T11:41:59;1.00;;;1.00;;
15071;SDS011;7635;56.696;13.002;2022-12-29T11:44:28;0.80;;;0.80;;
15071;SDS011;7635;56.696;13.002;2022-12-29T11:47:02;1.20;;;1.07;;
15071;SDS011;7635;56.696;13.002;2022-12-29T11:49:35;3.50;;;0.87;;
15071;SDS011;7635;56.696;13.002;2022-12-29T11:52:02;0.60;;;0.60;;
15071;SDS011;7635;56.696;13.002;2022-12-29T11:54:31;2.60;;;1.13;;
15071;SDS011;7635;56.696;13.002;2022-12-29T11:57:08;0.90;;;0.90;;
15071;SDS011;7635;56.696;13.002;2022-12-29T11:59:43;0.90;;;0.90;;
15071;SDS011;7635;56.696;13.002;2022-12-29T12:02:22;3.00;;;1.13;;
15071;SDS011;7635;56.696;13.002;2022-12-29T12:05:05;0.63;;;0.63;;
15071;SDS011;7635;56.696;13.002;2022-12-29T12:07:40;1.30;;;1.20;;
15071;SDS011;7635;56.696;13.002;2022-12-29T12:10:12;3.43;;;1.37;;
15071;SDS011;7635;56.696;13.002;2022-12-29T12:12:45;1.33;;;1.23;;
15071;SDS011;7635;56.696;13.002;2022-12-29T12:15:16;2.47;;;1.17;;
15071;SDS011;7635;56.696;13.002;2022-12-29T12:17:51;1.30;;;1.20;;
15071;SDS011;7635;56.696;13.002;2022-12-29T12:20:22;2.03;;;0.93;;
15071;SDS011;7635;56.696;13.002;2022-12-29T12:23:01;1.70;;;1.17;;
15071;SDS011;7635;56.696;13.002;2022-12-29T12:25:45;1.33;;;1.10;;
15071;SDS011;7635;56.696;13.002;2022-12-29T12:28:24;0.60;;;0.60;;
15071;SDS011;7635;56.696;13.002;2022-12-29T12:30:59;0.63;;;0.60;;
15071;SDS011;7635;56.696;13.002;2022-12-29T12:33:30;1.97;;;1.13;;
15071;SDS011;7635;56.696;13.002;2022-12-29T12:36:06;1.63;;;1.20;;
15071;SDS011;7635;56.696;13.002;2022-12-29T12:38:44;2.43;;;1.33;;
15071;SDS011;7635;56.696;13.002;2022-12-29T12:41:25;2.40;;;0.90;;
15071;SDS011;7635;56.696;13.002;2022-12-29T12:44:00;4.80;;;1.60;;
15071;SDS011;7635;56.696;13.002;2022-12-29T12:46:40;1.57;;;1.00;;
15071;SDS011;7635;56.696;13.002;2022-12-29T12:49:24;3.93;;;1.20;;
15071;SDS011;7635;56.696;13.002;2022-12-29T12:52:05;0.30;;;0.30;;
15071;SDS011;7635;56.696;13.002;2022-12-29T12:54:41;4.57;;;1.40;;
15071;SDS011;7635;56.696;13.002;2022-12-29T12:57:31;1.20;;;0.87;;
15071;SDS011;7635;56.696;13.002;2022-12-29T13:00:13;2.00;;;1.10;;
15071;SDS011;7635;56.696;13.002;2022-12-29T13:02:46;2.47;;;1.23;;
15071;SDS011;7635;56.696;13.002;2022-12-29T13:05:28;1.37;;;1.13;;
15071;SDS011;7635;56.696;13.002;2022-12-29T13:08:22;2.60;;;1.20;;
15071;SDS011;7635;56.696;13.002;2022-12-29T13:11:02;2.43;;;0.97;;
15071;SDS011;7635;56.696;13.002;2022-12-29T13:13:41;1.83;;;1.20;;
15071;SDS011;7635;56.696;13.002;2022-12-29T13:16:27;2.30;;;1.10;;
15071;SDS011;7635;56.696;13.002;2022-12-29T13:19:02;2.37;;;1.47;;
15071;SDS011;7635;56.696;13.002;2022-12-29T13:21:40;1.63;;;0.93;;
15071;SDS011;7635;56.696;13.002;2022-12-29T13:24:19;1.70;;;1.03;;
15071;SDS011;7635;56.696;13.002;2022-12-29T13:26:59;3.33;;;1.00;;
15071;SDS011;7635;56.696;13.002;2022-12-29T13:29:46;3.33;;;1.47;;
15071;SDS011;7635;56.696;13.002;2022-12-29T13:32:25;2.20;;;1.10;;
15071;SDS011;7635;56.696;13.002;2022-12-29T13:35:19;5.40;;;1.70;;
15071;SDS011;7635;56.696;13.002;2022-12-29T13:38:18;0.83;;;0.83;;
15071;SDS011;7635;56.696;13.002;2022-12-29T13:40:51;2.83;;;1.63;;
15071;SDS011;7635;56.696;13.002;2022-12-29T13:43:21;4.43;;;1.67;;
15071;SDS011;7635;56.696;13.002;2022-12-29T13:45:55;0.67;;;0.67;;
15071;SDS011;7635;56.696;13.002;2022-12-29T13:48:29;3.77;;;1.57;;
15071;SDS011;7635;56.696;13.002;2022-12-29T13:51:03;4.17;;;1.43;;
15071;SDS011;7635;56.696;13.002;2022-12-29T13:53:36;2.10;;;1.13;;
15071;SDS011;7635;56.696;13.002;2022-12-29T13:58:50;0.70;;;0.70;;
15071;SDS011;7635;56.696;13.002;2022-12-29T14:01:23;1.70;;;1.40;;
15071;SDS011;7635;56.696;13.002;2022-12-29T14:03:56;0.50;;;0.50;;
15071;SDS011;7635;56.696;13.002;2022-12-29T14:06:25;0.87;;;0.77;;
15071;SDS011;7635;56.696;13.002;2022-12-29T14:08:55;0.77;;;0.77;;
15071;SDS011;7635;56.696;13.002;2022-12-29T14:11:23;1.10;;;1.07;;
15071;SDS011;7635;56.696;13.002;2022-12-29T14:13:57;4.63;;;1.37;;
15071;SDS011;7635;56.696;13.002;2022-12-29T14:16:39;0.50;;;0.50;;
15071;SDS011;7635;56.696;13.002;2022-12-29T14:19:11;1.63;;;1.50;;
15071;SDS011;7635;56.696;13.002;2022-12-29T14:21:41;0.50;;;0.50;;
15071;SDS011;7635;56.696;13.002;2022-12-29T14:24:40;6.00;;;1.20;;
15071;SDS011;7635;56.696;13.002;2022-12-29T14:30:46;0.47;;;0.40;;
15071;SDS011;7635;56.696;13.002;2022-12-29T14:33:15;2.90;;;1.30;;
15071;SDS011;7635;56.696;13.002;2022-12-29T14:35:43;0.93;;;0.83;;
15071;SDS011;7635;56.696;13.002;2022-12-29T14:43:56;3.03;;;1.53;;
15071;SDS011;7635;56.696;13.002;2022-12-29T14:46:44;4.10;;;1.57;;
15071;SDS011;7635;56.696;13.002;2022-12-29T14:49:15;2.00;;;1.07;;
15071;SDS011;7635;56.696;13.002;2022-12-29T14:51:45;0.50;;;0.50;;
15071;SDS011;7635;56.696;13.002;2022-12-29T15:00:07;2.23;;;1.20;;
15071;SDS011;7635;56.696;13.002;2022-12-29T15:02:44;2.70;;;1.70;;
15071;SDS011;7635;56.696;13.002;2022-12-29T15:05:22;2.53;;;0.90;;
15071;SDS011;7635;56.696;13.002;2022-12-29T15:07:54;3.30;;;1.40;;
15071;SDS011;7635;56.696;13.002;2022-12-29T15:10:31;5.80;;;1.33;;
15071;SDS011;7635;56.696;13.002;2022-12-29T15:13:04;3.10;;;1.43;;
15071;SDS011;7635;56.696;13.002;2022-12-29T15:15:39;3.10;;;1.33;;
15071;SDS011;7635;56.696;13.002;2022-12-29T15:18:13;4.97;;;1.60;;
15071;SDS011;7635;56.696;13.002;2022-12-29T15:20:49;2.90;;;1.37;;
15071;SDS011;7635;56.696;13.002;2022-12-29T15:23:17;3.97;;;1.73;;
15071;SDS011;7635;56.696;13.002;2022-12-29T15:25:47;2.43;;;1.47;;
15071;SDS011;7635;56.696;13.002;2022-12-29T15:28:18;3.80;;;1.63;;
15071;SDS011;7635;56.696;13.002;2022-12-29T15:30:51;2.10;;;1.30;;
15071;SDS011;7635;56.696;13.002;2022-12-29T15:33:19;2.87;;;1.43;;
15071;SDS011;7635;56.696;13.002;2022-12-29T15:35:49;2.53;;;1.17;;
15071;SDS011;7635;56.696;13.002;2022-12-29T15:38:20;1.77;;;1.43;;
15071;SDS011;7635;56.696;13.002;2022-12-29T15:40:51;1.63;;;1.23;;
15071;SDS011;7635;56.696;13.002;2022-12-29T15:43:34;2.20;;;1.30;;
15071;SDS011;7635;56.696;13.002;2022-12-29T15:46:12;1.00;;;0.73;;
15071;SDS011;7635;56.696;13.002;2022-12-29T15:48:40;1.90;;;1.10;;